Hlavní strana
METAR-TAF:

METAR-TAF

Letiště :

Fort Resolution, Severozápadní teritoria, Kanada

zeměpisná šířka: 61-11N, zeměpisná délka: 113-41W, výška: 164 m

Aktuální stav počasí

Zpráva byla vytvořena před 7 hodinami a 4 minutami, v 23:00 UTC
Východojihovýchodní vítr 15 kt s nárazy do 22 kt
Teplota -14°C
Vlhkost vzduchu 72%
Tlak 1014 hPa
Viditelnost: 12.9 km
Oblačno až skoro zataženo ve výšce 5500 ft
Zataženo ve výšce 7200 ft
nízko zvířený sníh

METAR: CYFR 202300Z 12015G22KT 8SM DRSN BKN055 OVC072 M14/M18 A2995 RMK SC5AC3 /0/19/ SNW CVR/MUCH LOOSE LAST STFD OBS/NEXT211500Z SLP160

Čas: 23:04 (06:04 UTC)


TAF: chybějící

Stav a předpovědi počasí z více než 4 000 letišť (zprávy METAR a TAF).

Červené a žluté tečky na mapě představují dostupné meteorologické stanice.

Když kurzor umístíte na tečku, zobrazí se název stanice.

Pak kliknutím zobrazíte stav a předpověď počasí.

Chcete-li změnit mapu, kliknutím na zelené tlačítko se znaménkem +mapu přiblížíte, kliknutím na zelené tlačítko se znaménkem – mapu oddálíte a kliknutím na zelené šipky přejdete na sousední mapy.


METAR-TAF: